Time;durP1;ratioP1;P1;durP2;ratioP2;P2;SDS_P1;SDS_P2;PMS_P1;PMS_P2;Temp;Humidity;BMP_temperature;BMP_pressure;BME280_temperature;BME280_humidity;BME280_pressure;Samples;Min_cycle;Max_cycle;Signal;HPM_P1;HPM_P2
2021/12/05 00:17:34;;;;;;;;;;;;;;;-1.78;78.92;99924.66;1778678;81;20155;-63
2021/12/05 00:19:48;;;;;;;;;;;;;;;-1.78;78.91;99915.27;1776014;81;20159;-64
2021/12/05 00:24:49;;;;;;;;;;;;;;;-1.69;79.29;99917.65;1779092;81;20175;-64
2021/12/05 00:27:18;;;;;;;;;;;;;;;-1.70;79.21;99919.48;1778888;81;20223;-63
2021/12/05 00:32:52;;;;;;;;;;;;;;;-1.73;79.29;99925.12;1752783;81;20523;-63
2021/12/05 00:44:23;;;;;;;;;;;;;;;-1.58;79.59;99926.13;1748320;81;20139;-64
2021/12/05 01:05:21;;;;;;;;;;;;;;;-1.84;78.67;99937.75;1753000;82;20184;-63
2021/12/05 01:13:05;;;;;;;;;;;;;;;-1.93;78.78;99928.64;1731008;82;20218;-62
2021/12/05 01:15:18;;;;;;;;;;;;;;;-1.91;78.83;99925.34;1693181;83;20182;-63
2021/12/05 01:17:58;;;;;;;;;;;;;;;-1.88;78.98;99925.58;1723130;83;20197;-63
2021/12/05 01:20:26;;;;;;;;;;;;;;;-1.83;79.21;99936.28;1723242;82;20536;-61
2021/12/05 01:23:02;;;;;;;;;;;;;;;-1.83;79.11;99942.99;1731996;83;20170;-63
2021/12/05 01:28:58;;;;;;;;;;;;;;;-1.91;78.83;99942.79;1743346;81;20263;-63
2021/12/05 01:36:08;;;;;;;;;;;;;;;-1.94;79.20;99946.59;1771171;81;20516;-63
2021/12/05 01:44:25;;;;;;;;;;;;;;;-1.87;79.22;99949.61;1755540;81;20144;-62
2021/12/05 01:47:10;;;;;;;;;;;;;;;-1.91;79.08;99944.13;1768491;81;20462;-62
2021/12/05 01:49:14;;;;;;;;;;;;;;;-1.93;78.91;99946.95;1768376;79;20139;-62
2021/12/05 01:54:30;;;;;;;;;;;;;;;-1.92;78.79;99951.34;1765948;81;20528;-64
2021/12/05 01:57:21;;;;;;;;;;;;;;;-1.96;78.62;99956.57;1764627;81;20212;-64
2021/12/05 02:08:06;;;;;;;;;;;;;;;-1.98;78.60;99945.60;1765577;80;20144;-62
2021/12/05 02:29:47;;;;;;;;;;;;;;;-2.05;78.45;99941.73;1749861;82;20296;-63
2021/12/05 02:32:50;;;;;;;;;;;;;;;-2.09;78.44;99934.91;1736201;82;20229;-63
2021/12/05 02:40:33;;;;;;;;;;;;;;;-2.29;78.24;99940.60;1748182;82;20221;-63
2021/12/05 02:43:04;;;;;;;;;;;;;;;-2.29;78.38;99946.83;1716451;83;20447;-63
2021/12/05 02:45:27;;;;;;;;;;;;;;;-2.25;78.51;99938.03;1747302;81;20152;-63
2021/12/05 02:47:55;;;;;;;;;;;;;;;-2.22;78.53;99936.92;1748115;82;20571;-62
2021/12/05 02:50:26;;;;;;;;;;;;;;;-2.20;78.50;99938.98;1749881;81;20194;-62
2021/12/05 02:52:59;;;;;;;;;;;;;;;-2.21;78.37;99927.40;1768778;81;20187;-63
2021/12/05 02:55:40;;;;;;;;;;;;;;;-2.22;78.40;99930.21;1768950;80;20215;-62
2021/12/05 02:58:16;;;;;;;;;;;;;;;-2.23;78.39;99926.67;1768218;81;20274;-64
2021/12/05 03:00:41;;;;;;;;;;;;;;;-2.23;78.32;99906.55;1767970;81;20148;-62
2021/12/05 03:03:20;;;;;;;;;;;;;;;-2.24;78.35;99897.66;1768889;81;20468;-63
2021/12/05 03:05:56;;;;;;;;;;;;;;;-2.21;78.41;99905.08;1759956;81;20176;-62
2021/12/05 03:08:23;;;;;;;;;;;;;;;-2.23;78.24;99909.23;1748264;81;20474;-63
2021/12/05 03:10:54;;;;;;;;;;;;;;;-2.27;78.36;99907.30;1758182;80;20211;-61
2021/12/05 03:13:22;;;;;;;;;;;;;;;-2.28;78.39;99906.94;1752043;82;20250;-63
2021/12/05 03:15:51;;;;;;;;;;;;;;;-2.29;78.35;99901.70;1751942;82;20273;-62
2021/12/05 03:18:20;;;;;;;;;;;;;;;-2.32;78.25;99885.38;1751808;82;20475;-63
2021/12/05 03:20:49;;;;;;;;;;;;;;;-2.36;78.24;99889.29;1751953;82;20150;-62
2021/12/05 03:23:17;;;;;;;;;;;;;;;-2.38;78.44;99877.84;1753001;82;20230;-63
2021/12/05 03:25:47;;;;;;;;;;;;;;;-2.38;78.68;99882.34;1753773;82;20151;-63
2021/12/05 03:28:15;;;;;;;;;;;;;;;-2.37;78.69;99883.56;1754134;82;20186;-63
2021/12/05 03:30:45;;;;;;;;;;;;;;;-2.38;78.69;99875.16;1750677;82;20490;-63
2021/12/05 03:33:15;;;;;;;;;;;;;;;-2.38;78.85;99877.84;1749112;82;20174;-63
2021/12/05 03:35:43;;;;;;;;;;;;;;;-2.35;78.91;99876.23;1749181;82;20222;-64
2021/12/05 03:38:12;;;;;;;;;;;;;;;-2.33;78.96;99875.62;1749328;82;20475;-63
2021/12/05 03:40:40;;;;;;;;;;;;;;;-2.32;79.22;99871.95;1748920;82;20142;-63
2021/12/05 03:43:12;;;;;;;;;;;;;;;-2.27;79.46;99871.08;1749050;82;20150;-62
2021/12/05 03:45:43;;;;;;;;;;;;;;;-2.24;79.46;99874.00;1735946;82;20233;-62
2021/12/05 03:48:12;;;;;;;;;;;;;;;-2.18;79.57;99876.66;1753742;82;20205;-62
2021/12/05 03:50:41;;;;;;;;;;;;;;;-2.13;79.52;99877.11;1732713;82;20168;-62
2021/12/05 03:53:09;;;;;;;;;;;;;;;-2.08;79.72;99877.58;1723754;83;20208;-63
2021/12/05 03:55:40;;;;;;;;;;;;;;;-2.03;79.83;99880.23;1747487;82;20163;-63
2021/12/05 03:58:08;;;;;;;;;;;;;;;-1.96;79.98;99877.87;1753976;82;20194;-63
2021/12/05 04:00:42;;;;;;;;;;;;;;;-1.89;80.06;99879.57;1753728;82;20174;-62
2021/12/05 04:03:15;;;;;;;;;;;;;;;-1.82;80.12;99872.20;1753812;82;20201;-61
2021/12/05 04:05:44;;;;;;;;;;;;;;;-1.79;80.03;99873.28;1746111;82;20146;-63
2021/12/05 04:08:14;;;;;;;;;;;;;;;-1.76;79.96;99867.64;1746689;82;20233;-62
2021/12/05 04:10:45;;;;;;;;;;;;;;;-1.71;79.94;99871.28;1748425;82;20209;-62
2021/12/05 04:13:14;;;;;;;;;;;;;;;-1.69;79.84;99876.88;1748932;82;20217;-62
2021/12/05 04:15:47;;;;;;;;;;;;;;;-1.68;79.71;99875.89;1749064;82;20225;-62
2021/12/05 04:18:17;;;;;;;;;;;;;;;-1.65;79.73;99882.83;1747304;82;20174;-63
2021/12/05 04:20:47;;;;;;;;;;;;;;;-1.65;79.63;99892.23;1748960;82;20154;-64
2021/12/05 04:23:16;;;;;;;;;;;;;;;-1.65;79.52;99892.23;1743877;82;20174;-64
2021/12/05 04:25:48;;;;;;;;;;;;;;;-1.68;79.27;99904.09;1737155;83;20160;-63
2021/12/05 04:28:19;;;;;;;;;;;;;;;-1.73;79.04;99900.09;1736246;82;20179;-63
2021/12/05 04:30:49;;;;;;;;;;;;;;;-1.78;78.78;99905.01;1727030;83;20227;-64
2021/12/05 04:33:19;;;;;;;;;;;;;;;-1.86;78.48;99908.35;1726398;83;20219;-63
2021/12/05 04:35:49;;;;;;;;;;;;;;;-1.96;78.25;99904.72;1726770;83;20259;-62
2021/12/05 04:38:19;;;;;;;;;;;;;;;-2.06;78.24;99908.67;1729196;83;20249;-62
2021/12/05 04:40:49;;;;;;;;;;;;;;;-2.12;78.29;99893.08;1728646;83;20156;-62
2021/12/05 04:43:18;;;;;;;;;;;;;;;-2.15;78.31;99893.83;1731094;83;20167;-63
2021/12/05 04:45:46;;;;;;;;;;;;;;;-2.18;78.37;99893.60;1729005;83;20227;-64
2021/12/05 04:48:15;;;;;;;;;;;;;;;-2.19;78.25;99906.66;1743613;82;20177;-63
2021/12/05 04:50:44;;;;;;;;;;;;;;;-2.25;78.22;99905.83;1733988;81;20204;-63
2021/12/05 04:53:13;;;;;;;;;;;;;;;-2.30;78.26;99901.34;1713038;84;20534;-63
2021/12/05 04:55:42;;;;;;;;;;;;;;;-2.31;78.41;99898.30;1750224;82;20179;-62
2021/12/05 04:58:12;;;;;;;;;;;;;;;-2.30;78.48;99904.88;1749448;81;20208;-62
2021/12/05 05:00:43;;;;;;;;;;;;;;;-2.26;78.57;99913.03;1754370;82;20267;-62
2021/12/05 05:03:12;;;;;;;;;;;;;;;-2.25;78.44;99921.44;1753297;82;20292;-63
2021/12/05 05:05:46;;;;;;;;;;;;;;;-2.25;78.40;99922.78;1755738;80;20160;-62
2021/12/05 05:08:11;;;;;;;;;;;;;;;-2.24;78.31;99935.22;1752540;81;20438;-64
2021/12/05 05:10:40;;;;;;;;;;;;;;;-2.26;78.19;99936.33;1762858;81;20153;-63
2021/12/05 05:13:09;;;;;;;;;;;;;;;-2.30;78.00;99931.70;1755039;81;20470;-63
2021/12/05 05:15:39;;;;;;;;;;;;;;;-2.38;77.88;99929.30;1756371;81;20163;-62
2021/12/05 05:18:10;;;;;;;;;;;;;;;-2.43;77.81;99932.84;1757209;81;20148;-62
2021/12/05 05:20:52;;;;;;;;;;;;;;;-2.47;77.80;99928.23;1758251;81;20212;-64
2021/12/05 05:39:42;;;;;;;;;;;;;;;-2.68;77.92;99924.59;1760743;80;20188;-62
2021/12/05 05:45:15;;;;;;;;;;;;;;;-2.68;78.12;99908.50;1755425;81;20466;-63
2021/12/05 05:49:58;;;;;;;;;;;;;;;-2.68;78.31;99927.27;1757184;81;20447;-62
2021/12/05 05:52:29;;;;;;;;;;;;;;;-2.65;78.42;99908.25;1756414;81;20500;-62
2021/12/05 05:54:59;;;;;;;;;;;;;;;-2.62;78.37;99908.85;1760685;80;20204;-63
2021/12/05 05:57:42;;;;;;;;;;;;;;;-2.62;78.25;99914.22;1755515;80;20516;-63
2021/12/05 06:00:17;;;;;;;;;;;;;;;-2.59;78.32;99915.83;1758549;81;20168;-63
2021/12/05 06:05:34;;;;;;;;;;;;;;;-2.53;78.56;99915.32;1756619;81;20263;-62
2021/12/05 06:08:03;;;;;;;;;;;;;;;-2.46;78.70;99915.17;1757612;81;20160;-64
2021/12/05 06:10:32;;;;;;;;;;;;;;;-2.38;78.81;99924.78;1759510;81;20192;-62
2021/12/05 06:13:01;;;;;;;;;;;;;;;-2.32;78.75;99920.25;1756594;81;20192;-62
2021/12/05 06:15:31;;;;;;;;;;;;;;;-2.27;78.69;99927.42;1760571;80;20204;-61
2021/12/05 06:18:00;;;;;;;;;;;;;;;-2.24;78.73;99931.68;1759886;80;20210;-64
2021/12/05 06:20:29;;;;;;;;;;;;;;;-2.20;78.78;99932.28;1760715;81;20483;-63
2021/12/05 06:23:00;;;;;;;;;;;;;;;-2.17;78.73;99924.83;1744760;81;20180;-64
2021/12/05 06:25:30;;;;;;;;;;;;;;;-2.14;78.69;99926.39;1760551;80;20176;-62
2021/12/05 06:28:02;;;;;;;;;;;;;;;-2.10;78.67;99931.87;1755998;81;20207;-62
2021/12/05 06:30:51;;;;;;;;;;;;;;;-2.05;78.59;99941.73;1760846;81;20203;-63
2021/12/05 06:46:59;;;;;;;;;;;;;;;-1.90;78.16;99965.97;1758592;81;20513;-62
2021/12/05 06:49:27;;;;;;;;;;;;;;;-1.87;78.12;99964.38;1756588;81;20316;-64
2021/12/05 06:51:55;;;;;;;;;;;;;;;-1.87;78.09;99969.74;1760330;80;20558;-62
2021/12/05 06:54:24;;;;;;;;;;;;;;;-1.84;78.00;99974.85;1757035;81;20442;-64
2021/12/05 06:56:52;;;;;;;;;;;;;;;-1.83;77.97;99971.67;1760721;81;20157;-64
2021/12/05 06:59:21;;;;;;;;;;;;;;;-1.82;78.00;99972.89;1722518;82;20593;-63
2021/12/05 07:01:49;;;;;;;;;;;;;;;-1.76;77.92;99978.23;1756850;80;20195;-64
2021/12/05 07:04:49;;;;;;;;;;;;;;;-1.72;77.77;99987.24;1752828;81;20469;-62
2021/12/05 07:07:05;;;;;;;;;;;;;;;-1.68;77.69;99982.47;1754754;81;20516;-64
2021/12/05 07:09:34;;;;;;;;;;;;;;;-1.63;77.42;99980.23;1744631;81;20188;-62
2021/12/05 07:14:47;;;;;;;;;;;;;;;-1.58;77.18;99980.70;1745694;81;20566;-63
2021/12/05 07:22:21;;;;;;;;;;;;;;;-1.51;76.81;99982.37;1753094;81;20156;-64
2021/12/05 07:24:50;;;;;;;;;;;;;;;-1.46;76.71;99980.14;1764991;79;20220;-64
2021/12/05 07:43:48;;;;;;;;;;;;;;;-1.15;76.45;99980.57;1762540;81;20165;-64
2021/12/05 07:46:16;;;;;;;;;;;;;;;-0.90;76.37;99977.93;1755444;81;20507;-63
2021/12/05 07:48:46;;;;;;;;;;;;;;;-0.59;75.67;99981.97;1760092;81;20207;-63
2021/12/05 07:54:43;;;;;;;;;;;;;;;-0.04;74.74;99984.56;1759669;81;20164;-62
2021/12/05 07:56:36;;;;;;;;;;;;;;;0.31;73.81;99998.35;1743990;81;20156;-63
2021/12/05 07:59:06;;;;;;;;;;;;;;;0.59;72.71;99994.43;1759151;80;20200;-65
2021/12/05 08:15:25;;;;;;;;;;;;;;;1.16;67.46;100012.35;1740733;81;20537;-63
2021/12/05 08:17:52;;;;;;;;;;;;;;;1.09;67.69;100013.08;1769771;81;20152;-62
2021/12/05 08:20:27;;;;;;;;;;;;;;;1.01;67.92;100015.17;1750963;81;20238;-63
2021/12/05 08:22:55;;;;;;;;;;;;;;;0.99;67.92;100019.86;1757998;81;20155;-64
2021/12/05 08:25:26;;;;;;;;;;;;;;;0.92;67.90;100008.80;1761053;79;20166;-63
2021/12/05 08:28:03;;;;;;;;;;;;;;;0.90;68.14;100000.50;1761741;80;20156;-65
2021/12/05 08:30:32;;;;;;;;;;;;;;;0.84;68.17;100005.98;1762209;81;20213;-65
2021/12/05 08:46:12;;;;;;;;;;;;;;;0.47;69.27;99987.49;1751877;81;20191;-67
2021/12/05 09:08:45;;;;;;;;;;;;;;;0.46;69.82;99981.75;1773519;81;20401;-65
2021/12/05 09:25:01;;;;;;;;;;;;;;;0.59;71.72;99956.19;1729612;82;20568;-65
2021/12/05 10:06:44;;;;;;;;;;;;;;;0.86;71.69;99970.28;1668993;85;20184;-65
2021/12/05 10:11:32;;;;;;;;;;;;;;;0.97;71.64;99971.10;1608982;88;20178;-65
2021/12/05 10:16:59;;;;;;;;;;;;;;;1.04;71.57;99978.95;1560853;91;20301;-64
2021/12/05 10:36:10;;;;;;;;;;;;;;;1.29;70.78;99975.59;1735868;81;20567;-62
2021/12/05 10:38:44;;;;;;;;;;;;;;;1.31;69.89;99974.97;1745979;81;20174;-64
2021/12/05 10:43:49;;;;;;;;;;;;;;;1.38;68.75;99989.57;1669607;85;20505;-64
2021/12/05 10:46:20;;;;;;;;;;;;;;;1.42;68.34;99992.82;1699288;84;20163;-65
2021/12/05 10:48:51;;;;;;;;;;;;;;;1.45;67.79;99989.32;1693940;84;20523;-66
2021/12/05 10:51:27;;;;;;;;;;;;;;;1.47;66.81;99985.98;1698812;84;20207;-64
2021/12/05 10:54:07;;;;;;;;;;;;;;;1.45;66.17;99979.03;1588148;89;20241;-64
2021/12/05 10:56:41;;;;;;;;;;;;;;;1.45;66.80;99974.48;1588832;89;20543;-63
2021/12/05 10:59:17;;;;;;;;;;;;;;;1.53;66.59;99967.83;1591595;90;20534;-64
2021/12/05 11:01:51;;;;;;;;;;;;;;;1.58;66.38;99972.27;1590231;89;20218;-64
2021/12/05 11:04:25;;;;;;;;;;;;;;;1.61;65.65;99985.97;1593668;89;20165;-65
2021/12/05 11:06:59;;;;;;;;;;;;;;;1.61;64.75;99983.27;1601768;89;20188;-63
2021/12/05 11:09:34;;;;;;;;;;;;;;;1.59;64.60;99983.42;1587806;88;20195;-65
2021/12/05 11:12:08;;;;;;;;;;;;;;;1.58;64.67;99976.33;1589358;89;20535;-64
2021/12/05 11:14:38;;;;;;;;;;;;;;;1.60;64.52;99976.17;1580992;89;20175;-63
2021/12/05 11:17:11;;;;;;;;;;;;;;;1.63;64.69;99966.92;1602362;89;20530;-64
2021/12/05 11:19:42;;;;;;;;;;;;;;;1.66;64.73;99968.81;1683560;84;20215;-61
2021/12/05 11:22:23;;;;;;;;;;;;;;;1.68;64.31;99962.77;1681802;84;20251;-64
2021/12/05 11:24:55;;;;;;;;;;;;;;;1.69;64.26;99963.11;1699402;84;20293;-64
2021/12/05 11:27:33;;;;;;;;;;;;;;;1.71;64.33;99958.41;1692949;83;20278;-64
2021/12/05 11:30:14;;;;;;;;;;;;;;;1.74;64.47;99946.45;1685991;84;20247;-65
2021/12/05 11:32:49;;;;;;;;;;;;;;;1.74;64.46;99952.70;1692026;83;20181;-65
2021/12/05 11:35:35;;;;;;;;;;;;;;;1.74;64.31;99949.16;1681170;84;20591;-63
2021/12/05 11:38:25;;;;;;;;;;;;;;;1.69;64.17;99953.66;1684261;84;20627;-63
2021/12/05 11:41:10;;;;;;;;;;;;;;;1.66;64.31;99945.87;1686906;84;20512;-65
2021/12/05 11:43:56;;;;;;;;;;;;;;;1.68;64.25;99941.66;1690897;84;20184;-64
2021/12/05 11:49:18;;;;;;;;;;;;;;;1.63;63.69;99945.32;1700102;83;20184;-64
2021/12/05 11:51:56;;;;;;;;;;;;;;;1.63;64.01;99949.38;1684390;84;20220;-64
2021/12/05 11:54:32;;;;;;;;;;;;;;;1.67;63.94;99957.52;1688216;83;20237;-65
2021/12/05 11:57:11;;;;;;;;;;;;;;;1.69;64.05;99947.41;1682713;84;20264;-63
2021/12/05 11:59:54;;;;;;;;;;;;;;;1.70;63.67;99947.27;1693470;84;20212;-64
2021/12/05 12:02:28;;;;;;;;;;;;;;;1.70;63.60;99945.06;1686015;84;20552;-65
2021/12/05 12:05:19;;;;;;;;;;;;;;;1.68;63.29;99946.56;1688890;84;20239;-65
2021/12/05 12:08:00;;;;;;;;;;;;;;;1.65;63.13;99946.87;1706349;84;20236;-65
2021/12/05 12:10:32;;;;;;;;;;;;;;;1.66;63.15;99940.97;1647879;85;20176;-64
2021/12/05 12:13:06;;;;;;;;;;;;;;;1.67;63.37;99943.52;1633240;86;20167;-64
2021/12/05 12:15:35;;;;;;;;;;;;;;;1.72;63.47;99940.36;1649610;86;20247;-63
2021/12/05 12:18:22;;;;;;;;;;;;;;;1.75;63.64;99940.05;1655475;87;20159;-64
2021/12/05 12:20:45;;;;;;;;;;;;;;;1.76;64.00;99932.30;1638177;87;20556;-62
2021/12/05 12:23:15;;;;;;;;;;;;;;;1.74;63.85;99934.30;1650591;85;20253;-62
2021/12/05 12:25:45;;;;;;;;;;;;;;;1.72;63.43;99935.80;1629038;87;20192;-63
2021/12/05 12:28:14;;;;;;;;;;;;;;;1.70;63.24;99941.01;1642018;85;20153;-64
2021/12/05 12:30:45;;;;;;;;;;;;;;;1.67;63.86;99944.02;1654997;85;20159;-63
2021/12/05 12:33:20;;;;;;;;;;;;;;;1.64;64.87;99957.82;1632580;87;20241;-63
2021/12/05 12:35:49;;;;;;;;;;;;;;;1.59;65.86;99955.08;1647901;87;20488;-64
2021/12/05 12:38:21;;;;;;;;;;;;;;;1.56;66.86;99952.67;1654949;87;20205;-63
2021/12/05 12:40:54;;;;;;;;;;;;;;;1.52;68.03;99954.48;1654694;86;20155;-64
2021/12/05 12:43:45;;;;;;;;;;;;;;;1.48;68.52;99956.63;1639582;86;20183;-65
2021/12/05 12:46:26;;;;;;;;;;;;;;;1.46;69.10;99965.88;1646424;85;20206;-64
2021/12/05 12:48:58;;;;;;;;;;;;;;;1.42;69.49;99959.93;1640648;87;20202;-63
2021/12/05 12:51:33;;;;;;;;;;;;;;;1.42;69.68;99968.03;1643672;87;20198;-64
2021/12/05 12:54:10;;;;;;;;;;;;;;;1.38;69.28;99967.98;1653015;87;20218;-63
2021/12/05 12:56:40;;;;;;;;;;;;;;;1.32;68.88;99964.53;1641383;87;20162;-63
2021/12/05 12:59:17;;;;;;;;;;;;;;;1.27;68.48;99961.39;1646558;87;20472;-63
2021/12/05 13:10:09;;;;;;;;;;;;;;;1.11;67.91;99974.17;1647420;85;20532;-63
2021/12/05 13:12:44;;;;;;;;;;;;;;;1.08;68.02;99974.97;1677506;84;20478;-63
2021/12/05 13:15:23;;;;;;;;;;;;;;;1.04;68.40;99969.02;1675235;84;20477;-63
2021/12/05 13:18:04;;;;;;;;;;;;;;;1.05;68.19;99977.95;1693000;84;20169;-62
2021/12/05 13:20:53;;;;;;;;;;;;;;;1.03;67.96;99978.11;1696529;84;20474;-62
2021/12/05 13:23:50;;;;;;;;;;;;;;;1.00;68.02;99985.64;1684362;84;20652;-61
2021/12/05 13:26:30;;;;;;;;;;;;;;;0.98;68.04;99983.59;1677775;84;20165;-63
2021/12/05 13:29:17;;;;;;;;;;;;;;;0.94;68.23;99981.19;1687961;84;20525;-62
2021/12/05 13:32:14;;;;;;;;;;;;;;;0.90;69.03;99969.48;1634539;86;20219;-62
2021/12/05 13:35:00;;;;;;;;;;;;;;;0.92;69.19;99979.63;1624164;87;20532;-61
2021/12/05 13:37:32;;;;;;;;;;;;;;;0.88;69.19;99984.47;1620306;87;20511;-63
2021/12/05 13:40:19;;;;;;;;;;;;;;;0.85;69.92;99986.11;1645175;86;20168;-63
2021/12/05 13:42:50;;;;;;;;;;;;;;;0.82;70.04;99989.09;1648101;86;20192;-62
2021/12/05 13:45:24;;;;;;;;;;;;;;;0.82;70.49;99981.00;1636176;86;20514;-62
2021/12/05 13:47:58;;;;;;;;;;;;;;;0.77;70.89;99982.44;1635780;86;20493;-62
2021/12/05 13:50:35;;;;;;;;;;;;;;;0.72;71.06;99986.92;1627863;87;20220;-62
2021/12/05 13:53:10;;;;;;;;;;;;;;;0.67;71.34;99986.50;1630256;87;20175;-63
2021/12/05 13:55:58;;;;;;;;;;;;;;;0.60;71.54;99979.45;1647323;84;20196;-63
2021/12/05 14:01:16;;;;;;;;;;;;;;;0.55;72.22;99989.82;1681011;84;20230;-61
2021/12/05 14:04:10;;;;;;;;;;;;;;;0.52;72.48;99996.84;1675932;84;20192;-62
2021/12/05 14:06:44;;;;;;;;;;;;;;;0.52;72.64;99992.80;1688366;84;20241;-61
2021/12/05 14:09:24;;;;;;;;;;;;;;;0.51;72.79;99994.30;1694831;84;20200;-61
2021/12/05 14:12:04;;;;;;;;;;;;;;;0.51;72.96;100001.04;1696693;84;20165;-60
2021/12/05 14:14:37;;;;;;;;;;;;;;;0.52;73.27;100006.78;1657847;85;20525;-62
2021/12/05 14:17:12;;;;;;;;;;;;;;;0.53;73.36;100000.39;1667093;85;20182;-61
2021/12/05 14:19:42;;;;;;;;;;;;;;;0.51;73.47;100013.16;1676912;85;20196;-62
2021/12/05 14:22:12;;;;;;;;;;;;;;;0.50;73.60;100019.55;1660663;84;20216;-62
2021/12/05 14:24:44;;;;;;;;;;;;;;;0.48;73.64;100025.58;1675388;84;20165;-61
2021/12/05 14:27:15;;;;;;;;;;;;;;;0.42;73.69;100012.67;1681957;84;20590;-61
2021/12/05 14:29:46;;;;;;;;;;;;;;;0.36;73.90;100023.52;1677988;85;20280;-62
2021/12/05 14:32:30;;;;;;;;;;;;;;;0.29;74.07;100023.73;1674103;85;20530;-60
2021/12/05 14:35:10;;;;;;;;;;;;;;;0.22;74.35;100016.72;1660620;85;20220;-62
2021/12/05 14:37:40;;;;;;;;;;;;;;;0.17;74.56;100025.72;1664043;85;20214;-63
2021/12/05 14:40:14;;;;;;;;;;;;;;;0.16;74.74;100026.70;1666289;85;20229;-62
2021/12/05 14:42:44;;;;;;;;;;;;;;;0.09;74.88;100035.00;1674818;84;20474;-64
2021/12/05 14:45:23;;;;;;;;;;;;;;;0.07;75.16;100031.59;1696929;84;20333;-62
2021/12/05 14:47:53;;;;;;;;;;;;;;;0.05;75.29;100033.57;1690782;83;20506;-62
2021/12/05 14:50:30;;;;;;;;;;;;;;;0.06;75.46;100025.00;1671599;85;20252;-63
2021/12/05 14:53:00;;;;;;;;;;;;;;;0.08;75.44;100042.72;1678118;85;20351;-63
2021/12/05 14:55:30;;;;;;;;;;;;;;;0.07;75.32;100048.25;1668088;85;20599;-61
2021/12/05 14:58:01;;;;;;;;;;;;;;;0.07;75.26;100058.52;1677357;85;20299;-62
2021/12/05 15:00:39;;;;;;;;;;;;;;;0.06;75.26;100056.82;1685895;85;20197;-63
2021/12/05 15:03:13;;;;;;;;;;;;;;;0.12;75.69;100056.27;1663652;85;20227;-63
2021/12/05 15:05:43;;;;;;;;;;;;;;;0.12;75.35;100060.80;1670179;85;20465;-62
2021/12/05 15:08:15;;;;;;;;;;;;;;;0.07;75.04;100065.25;1690171;85;20304;-64
2021/12/05 15:10:45;;;;;;;;;;;;;;;0.06;74.90;100060.86;1662726;85;20326;-62
2021/12/05 15:13:17;;;;;;;;;;;;;;;-0.01;74.50;100063.72;1694522;84;20185;-63
2021/12/05 15:15:45;;;;;;;;;;;;;;;-0.09;74.48;100069.80;1669044;84;20215;-63
2021/12/05 15:18:16;;;;;;;;;;;;;;;-0.14;74.26;100072.55;1700740;84;20199;-62
2021/12/05 15:20:46;;;;;;;;;;;;;;;-0.16;74.23;100077.22;1678093;84;20219;-62
2021/12/05 15:23:14;;;;;;;;;;;;;;;-0.19;74.19;100076.99;1689222;84;20183;-62
2021/12/05 15:25:44;;;;;;;;;;;;;;;-0.19;74.28;100087.77;1694590;84;20583;-63
2021/12/05 15:28:13;;;;;;;;;;;;;;;-0.21;74.24;100085.70;1674726;84;20618;-63
2021/12/05 15:30:44;;;;;;;;;;;;;;;-0.28;74.28;100089.93;1722498;83;20208;-63
2021/12/05 15:33:15;;;;;;;;;;;;;;;-0.32;74.40;100087.16;1701074;84;20164;-65
2021/12/05 15:35:46;;;;;;;;;;;;;;;-0.33;74.34;100091.69;1686759;84;20206;-65
2021/12/05 15:38:21;;;;;;;;;;;;;;;-0.36;74.39;100093.80;1705064;83;20188;-66
2021/12/05 15:40:48;;;;;;;;;;;;;;;-0.38;74.53;100104.70;1627741;87;20577;-64
2021/12/05 15:43:20;;;;;;;;;;;;;;;-0.40;74.30;100099.09;1621239;87;20319;-64
2021/12/05 15:45:50;;;;;;;;;;;;;;;-0.45;74.26;100094.11;1632084;87;20206;-65
2021/12/05 15:48:23;;;;;;;;;;;;;;;-0.44;74.32;100093.63;1632121;87;20482;-65
2021/12/05 15:50:53;;;;;;;;;;;;;;;-0.47;74.23;100096.09;1623500;87;20187;-65
2021/12/05 15:53:22;;;;;;;;;;;;;;;-0.53;74.00;100087.20;1622175;87;20516;-65
2021/12/05 15:55:58;;;;;;;;;;;;;;;-0.58;74.12;100088.11;1635096;87;20207;-65
2021/12/05 15:58:32;;;;;;;;;;;;;;;-0.59;74.12;100079.67;1659114;83;20227;-65
2021/12/05 16:01:09;;;;;;;;;;;;;;;-0.61;73.99;100085.69;1724601;83;20159;-65
2021/12/05 16:03:46;;;;;;;;;;;;;;;-0.64;73.90;100079.22;1724475;82;20235;-65
2021/12/05 16:06:15;;;;;;;;;;;;;;;-0.70;73.88;100076.55;1732323;83;20175;-65
2021/12/05 16:08:45;;;;;;;;;;;;;;;-0.70;73.86;100073.00;1704392;82;20531;-64
2021/12/05 16:11:17;;;;;;;;;;;;;;;-0.74;73.82;100070.22;1708482;83;20149;-65
2021/12/05 16:13:47;;;;;;;;;;;;;;;-0.79;73.75;100076.49;1676889;85;20218;-66
2021/12/05 16:16:21;;;;;;;;;;;;;;;-0.86;73.90;100064.56;1681998;85;20182;-66
2021/12/05 16:18:52;;;;;;;;;;;;;;;-0.88;74.09;100071.42;1674723;86;20272;-65
2021/12/05 16:21:33;;;;;;;;;;;;;;;-0.88;74.01;100062.50;1674955;86;20181;-65
2021/12/05 16:24:17;;;;;;;;;;;;;;;-0.94;74.02;100069.76;1669291;85;20174;-65
2021/12/05 16:26:47;;;;;;;;;;;;;;;-0.96;74.19;100065.86;1671358;85;20208;-65
2021/12/05 16:29:20;;;;;;;;;;;;;;;-0.94;74.14;100060.34;1681353;85;20539;-65
2021/12/05 16:31:53;;;;;;;;;;;;;;;-0.97;74.12;100066.84;1655752;85;20163;-66
2021/12/05 16:34:31;;;;;;;;;;;;;;;-1.00;74.17;100069.80;1681264;85;20915;-66
2021/12/05 16:37:06;;;;;;;;;;;;;;;-1.01;74.36;100070.28;1683337;85;20214;-65
2021/12/05 16:39:37;;;;;;;;;;;;;;;-1.01;74.53;100059.53;1740374;82;20239;-65
2021/12/05 16:42:12;;;;;;;;;;;;;;;-0.98;74.63;100057.07;1719950;82;20165;-66
2021/12/05 16:44:42;;;;;;;;;;;;;;;-0.99;74.73;100058.91;1747631;82;20177;-65
2021/12/05 16:47:13;;;;;;;;;;;;;;;-1.00;74.66;100060.38;1732284;82;20242;-65
2021/12/05 16:49:44;;;;;;;;;;;;;;;-1.05;74.54;100058.58;1741499;82;20202;-66
2021/12/05 16:52:15;;;;;;;;;;;;;;;-1.04;74.47;100066.52;1743470;82;20297;-66
2021/12/05 16:54:51;;;;;;;;;;;;;;;-1.01;74.36;100069.44;1743712;82;20225;-66
2021/12/05 16:57:28;;;;;;;;;;;;;;;-1.03;74.19;100064.19;1729172;82;20174;-65
2021/12/05 16:59:56;;;;;;;;;;;;;;;-1.04;74.10;100078.61;1739958;82;20186;-65
2021/12/05 17:02:29;;;;;;;;;;;;;;;-1.07;73.87;100085.60;1727576;82;20221;-65
2021/12/05 17:05:01;;;;;;;;;;;;;;;-1.10;73.96;100076.45;1740881;82;20191;-65
2021/12/05 17:07:43;;;;;;;;;;;;;;;-1.11;74.03;100075.24;1725193;82;20456;-65
2021/12/05 17:10:25;;;;;;;;;;;;;;;-1.14;74.14;100070.98;1737796;82;20168;-65
2021/12/05 17:13:16;;;;;;;;;;;;;;;-1.13;74.23;100063.77;1734407;82;20179;-64
2021/12/05 17:15:58;;;;;;;;;;;;;;;-1.14;74.30;100060.23;1683945;85;20212;-64
2021/12/05 17:18:31;;;;;;;;;;;;;;;-1.13;74.37;100062.42;1684511;85;20546;-65
2021/12/05 17:21:10;;;;;;;;;;;;;;;-1.12;74.45;100064.13;1683812;85;20184;-65
2021/12/05 17:23:48;;;;;;;;;;;;;;;-1.11;74.37;100073.90;1684310;85;20231;-66
2021/12/05 17:26:26;;;;;;;;;;;;;;;-1.10;74.31;100077.80;1674610;85;20249;-66
2021/12/05 17:29:17;;;;;;;;;;;;;;;-1.12;74.35;100081.11;1532167;92;20763;-65
2021/12/05 17:31:48;;;;;;;;;;;;;;;-1.12;74.40;100086.98;1512749;94;20337;-65
2021/12/05 17:34:22;;;;;;;;;;;;;;;-1.14;74.56;100087.60;1513765;94;20570;-65
2021/12/05 17:36:54;;;;;;;;;;;;;;;-1.12;74.72;100095.05;1517089;93;20653;-66
2021/12/05 17:39:28;;;;;;;;;;;;;;;-1.11;74.67;100088.19;1519828;94;20194;-65
2021/12/05 17:41:59;;;;;;;;;;;;;;;-1.13;74.74;100094.19;1502180;94;20264;-65
2021/12/05 17:44:27;;;;;;;;;;;;;;;-1.12;74.89;100091.01;1527874;94;20316;-65
2021/12/05 17:46:58;;;;;;;;;;;;;;;-1.09;74.94;100088.06;1574505;90;20186;-65
2021/12/05 17:49:28;;;;;;;;;;;;;;;-1.08;75.03;100091.95;1595951;90;20240;-65
2021/12/05 17:51:58;;;;;;;;;;;;;;;-1.06;75.02;100095.86;1579653;90;20268;-65
2021/12/05 17:54:41;;;;;;;;;;;;;;;-1.09;75.00;100092.94;1668188;85;20158;-64
2021/12/05 17:57:05;;;;;;;;;;;;;;;-1.13;75.16;100098.22;1695691;84;20188;-65
2021/12/05 17:59:30;;;;;;;;;;;;;;;-1.13;75.23;100099.56;1689524;83;20288;-65
2021/12/05 18:04:50;;;;;;;;;;;;;;;-1.15;75.37;100105.56;1690143;84;20194;-66
2021/12/05 18:07:21;;;;;;;;;;;;;;;-1.12;75.48;100101.77;1689510;84;20158;-66
2021/12/05 18:09:51;;;;;;;;;;;;;;;-1.13;75.52;100106.28;1697641;84;20544;-64
2021/12/05 18:12:22;;;;;;;;;;;;;;;-1.15;75.64;100107.40;1693413;84;20162;-65
2021/12/05 18:14:51;;;;;;;;;;;;;;;-1.12;75.77;100102.61;1696042;83;20273;-66
2021/12/05 18:17:19;;;;;;;;;;;;;;;-1.08;75.81;100102.72;1695664;83;20162;-65
2021/12/05 18:19:49;;;;;;;;;;;;;;;-1.05;75.83;100102.45;1695359;83;20186;-65
2021/12/05 18:22:17;;;;;;;;;;;;;;;-1.04;75.91;100093.41;1695842;83;20281;-66
2021/12/05 18:24:46;;;;;;;;;;;;;;;-1.00;75.95;100089.96;1663632;86;20478;-66
2021/12/05 18:27:14;;;;;;;;;;;;;;;-0.95;75.97;100093.11;1676475;85;20536;-65